createdAt,value
2022-12-13T00:00:20.673Z,-7.2
2022-12-13T00:01:21.822Z,-7.2
2022-12-13T00:02:23.254Z,-7.2
2022-12-13T00:03:24.729Z,-7.2
2022-12-13T00:04:25.936Z,-7.2
2022-12-13T00:05:27.561Z,-7.2
2022-12-13T00:06:28.180Z,-7.2
2022-12-13T00:07:29.591Z,-7.2
2022-12-13T00:08:30.484Z,-7.3
2022-12-13T00:09:31.868Z,-7.3
2022-12-13T00:10:33.006Z,-7.3
2022-12-13T00:11:34.436Z,-7.3
2022-12-13T00:12:35.842Z,-7.3
2022-12-13T00:13:37.000Z,-7.3
2022-12-13T00:14:37.834Z,-7.3
2022-12-13T00:15:38.729Z,-7.3
2022-12-13T00:16:39.933Z,-7.3
2022-12-13T00:17:41.239Z,-7.4
2022-12-13T00:18:42.650Z,-7.4
2022-12-13T00:19:43.547Z,-7.4
2022-12-13T00:20:44.963Z,-7.4
2022-12-13T00:21:46.383Z,-7.4
2022-12-13T00:22:47.513Z,-7.4
2022-12-13T00:23:48.416Z,-7.4
2022-12-13T00:24:49.546Z,-7.4
2022-12-13T00:25:50.964Z,-7.4
2022-12-13T00:26:52.386Z,-7.4
2022-12-13T00:27:53.717Z,-7.4
2022-12-13T00:28:54.349Z,-7.4
2022-12-13T00:29:55.744Z,-7.4
2022-12-13T00:30:56.962Z,-7.4
2022-12-13T00:32:01.000Z,-7.4
2022-12-13T00:33:02.980Z,-7.4
2022-12-13T00:34:04.398Z,-7.4
2022-12-13T00:35:05.804Z,-7.4
2022-12-13T00:36:06.941Z,-7.4
2022-12-13T00:37:08.096Z,-7.4
2022-12-13T00:38:09.220Z,-7.4
2022-12-13T00:39:09.827Z,-7.4
2022-12-13T00:40:10.733Z,-7.4
2022-12-13T00:41:12.140Z,-7.4
2022-12-13T00:42:13.056Z,-7.4
2022-12-13T00:43:14.443Z,-7.4
2022-12-13T00:44:15.610Z,-7.3
2022-12-13T00:45:16.695Z,-7.3
2022-12-13T00:46:18.264Z,-7.3
2022-12-13T00:47:19.482Z,-7.3
2022-12-13T00:48:20.628Z,-7.3
2022-12-13T00:49:21.765Z,-7.3
2022-12-13T00:50:23.185Z,-7.3
2022-12-13T00:51:24.316Z,-7.3
2022-12-13T00:52:25.865Z,-7.3
2022-12-13T00:53:27.232Z,-7.3
2022-12-13T00:54:28.644Z,-7.3
2022-12-13T00:55:29.785Z,-7.3
2022-12-13T00:56:30.918Z,-7.3
2022-12-13T00:57:32.073Z,-7.3
2022-12-13T00:58:33.255Z,-7.3
2022-12-13T00:59:34.422Z,-7.3
2022-12-13T01:00:35.283Z,-7.3
2022-12-13T01:01:36.848Z,-7.3
2022-12-13T01:02:38.247Z,-7.3
2022-12-13T01:03:38.860Z,-7.3
2022-12-13T01:04:40.137Z,-7.3
2022-12-13T01:06:13.504Z,-7.3
2022-12-13T01:07:17.750Z,-7.3
2022-12-13T01:08:18.944Z,-7.3
2022-12-13T01:09:20.244Z,-7.3
2022-12-13T01:10:21.100Z,-7.3
2022-12-13T01:11:22.233Z,-7.3
2022-12-13T01:12:23.645Z,-7.3
2022-12-13T01:13:24.833Z,-7.3
2022-12-13T01:14:26.308Z,-7.4
2022-12-13T01:15:28.580Z,-7.3
2022-12-13T01:16:29.469Z,-7.4
2022-12-13T01:17:30.946Z,-7.4
2022-12-13T01:18:31.576Z,-7.4
2022-12-13T01:19:33.006Z,-7.5
2022-12-13T01:20:33.859Z,-7.5
2022-12-13T01:21:35.275Z,-7.5
2022-12-13T01:22:36.169Z,-7.5
2022-12-13T01:23:37.324Z,-7.5
2022-12-13T01:24:38.445Z,-7.5
2022-12-13T01:25:39.332Z,-7.5
2022-12-13T01:26:40.254Z,-7.5
2022-12-13T01:27:41.144Z,-7.5
2022-12-13T01:28:43.072Z,-7.5
2022-12-13T01:29:43.883Z,-7.5
2022-12-13T01:30:44.796Z,-7.5
2022-12-13T01:31:46.345Z,-7.5
2022-12-13T01:32:47.758Z,-7.5
2022-12-13T01:33:48.920Z,-7.5
2022-12-13T01:34:50.031Z,-7.5
2022-12-13T01:35:51.167Z,-7.5
2022-12-13T01:36:52.306Z,-7.5
2022-12-13T01:37:59.978Z,-7.5
2022-12-13T01:39:01.401Z,-7.5
2022-12-13T01:40:16.636Z,-7.5
2022-12-13T01:41:18.314Z,-7.5
2022-12-13T01:42:19.555Z,-7.5
2022-12-13T01:43:20.730Z,-7.5
2022-12-13T01:44:21.895Z,-7.5
2022-12-13T01:45:23.060Z,-7.5
2022-12-13T01:46:24.565Z,-7.6
2022-12-13T01:47:25.801Z,-7.6
2022-12-13T01:48:26.940Z,-7.6
2022-12-13T01:49:28.125Z,-7.6
2022-12-13T01:50:28.969Z,-7.6
2022-12-13T01:51:29.862Z,-7.6
2022-12-13T01:52:31.047Z,-7.6
2022-12-13T01:53:32.445Z,-7.7
2022-12-13T01:54:34.368Z,-7.7
2022-12-13T01:55:41.373Z,-7.7
2022-12-13T01:56:43.397Z,-7.7
2022-12-13T01:57:47.305Z,-7.7
2022-12-13T01:58:48.436Z,-7.7
2022-12-13T01:59:49.864Z,-7.7
2022-12-13T02:00:50.768Z,-7.7
2022-12-13T02:01:52.208Z,-7.7
2022-12-13T02:03:01.885Z,-7.7
2022-12-13T02:04:03.297Z,-7.7
2022-12-13T02:05:04.775Z,-7.7
2022-12-13T02:06:05.801Z,-7.7
2022-12-13T02:07:06.994Z,-7.8
2022-12-13T02:08:08.211Z,-7.8
2022-12-13T02:09:09.096Z,-7.8
2022-12-13T02:10:10.517Z,-7.8
2022-12-13T02:11:11.642Z,-7.8
2022-12-13T02:12:13.057Z,-7.8
2022-12-13T02:13:13.953Z,-7.8
2022-12-13T02:14:15.364Z,-7.8
2022-12-13T02:15:17.054Z,-7.8
2022-12-13T02:16:22.046Z,-7.8
2022-12-13T02:17:24.368Z,-7.8
2022-12-13T02:18:25.758Z,-7.8
2022-12-13T02:19:26.655Z,-7.8
2022-12-13T02:20:28.081Z,-7.8
2022-12-13T02:21:29.515Z,-7.7
2022-12-13T02:22:30.368Z,-7.8
2022-12-13T02:23:31.538Z,-7.8
2022-12-13T02:24:32.677Z,-7.8
2022-12-13T02:25:33.836Z,-7.8
2022-12-13T02:26:34.984Z,-7.8
2022-12-13T02:27:42.483Z,-7.8
2022-12-13T02:28:44.153Z,-7.8
2022-12-13T02:29:45.564Z,-7.8
2022-12-13T02:30:47.508Z,-7.8
2022-12-13T02:31:48.753Z,-7.8
2022-12-13T02:32:49.991Z,-7.8
2022-12-13T02:33:51.150Z,-7.8
2022-12-13T02:34:52.321Z,-7.8
2022-12-13T02:35:53.479Z,-7.8
2022-12-13T02:36:54.596Z,-7.8
2022-12-13T02:37:55.729Z,-7.8
2022-12-13T02:38:57.153Z,-7.8
2022-12-13T02:39:58.285Z,-7.8
2022-12-13T02:41:00.622Z,-7.8
2022-12-13T02:42:01.800Z,-7.8
2022-12-13T02:43:02.959Z,-7.8
2022-12-13T02:44:04.387Z,-7.8
2022-12-13T02:45:24.409Z,-7.8
2022-12-13T02:46:27.282Z,-7.8
2022-12-13T02:47:28.475Z,-7.8
2022-12-13T02:48:29.353Z,-7.8
2022-12-13T02:49:30.464Z,-7.8
2022-12-13T02:50:31.881Z,-7.8
2022-12-13T02:51:33.021Z,-7.8
2022-12-13T02:52:34.436Z,-7.8
2022-12-13T02:53:35.573Z,-7.8
2022-12-13T02:54:36.713Z,-7.8
2022-12-13T02:55:43.831Z,-7.8
2022-12-13T02:56:44.983Z,-7.8
2022-12-13T02:57:46.120Z,-7.8
2022-12-13T02:58:47.241Z,-7.8
2022-12-13T02:59:48.652Z,-7.8
2022-12-13T03:00:53.905Z,-7.8
2022-12-13T03:01:55.083Z,-7.8
2022-12-13T03:03:12.190Z,-7.8
2022-12-13T03:04:14.158Z,-7.8
2022-12-13T03:05:15.943Z,-7.8
2022-12-13T03:06:17.934Z,-7.8
2022-12-13T03:07:19.022Z,-7.8
2022-12-13T03:08:20.415Z,-7.8
2022-12-13T03:09:22.318Z,-7.8
2022-12-13T03:10:23.479Z,-7.8
2022-12-13T03:11:24.899Z,-7.8
2022-12-13T03:12:26.337Z,-7.8
2022-12-13T03:13:27.513Z,-7.9
2022-12-13T03:14:31.769Z,-7.9
2022-12-13T03:15:33.014Z,-7.9
2022-12-13T03:16:34.454Z,-7.9
2022-12-13T03:17:35.844Z,-7.9
2022-12-13T03:18:36.985Z,-7.9
2022-12-13T03:19:37.868Z,-7.9
2022-12-13T03:20:39.012Z,-7.9
2022-12-13T03:21:44.044Z,-7.9
2022-12-13T03:22:49.475Z,-7.9
2022-12-13T03:23:50.748Z,-7.9
2022-12-13T03:24:51.923Z,-8
2022-12-13T03:25:53.060Z,-8
2022-12-13T03:26:54.245Z,-8
2022-12-13T03:27:55.647Z,-8
2022-12-13T03:29:03.613Z,-8
2022-12-13T03:30:04.757Z,-8
2022-12-13T03:31:05.697Z,-8
2022-12-13T03:32:07.343Z,-8
2022-12-13T03:33:08.208Z,-8
2022-12-13T03:34:09.621Z,-8
2022-12-13T03:35:21.789Z,-8
2022-12-13T03:36:24.853Z,-8.1
2022-12-13T03:37:26.016Z,-8.1
2022-12-13T03:38:27.129Z,-8.1
2022-12-13T03:39:28.021Z,-8.1
2022-12-13T03:40:28.907Z,-8.2
2022-12-13T03:41:29.797Z,-8.2
2022-12-13T03:42:31.228Z,-8.2
2022-12-13T03:43:32.631Z,-8.2
2022-12-13T03:44:34.047Z,-8.2
2022-12-13T03:45:34.907Z,-8.3
2022-12-13T03:46:36.079Z,-8.3
2022-12-13T03:47:36.955Z,-8.3
2022-12-13T03:48:37.810Z,-8.3
2022-12-13T03:49:39.220Z,-8.3
2022-12-13T03:50:40.417Z,-8.3
2022-12-13T03:51:41.526Z,-8.3
2022-12-13T03:52:42.672Z,-8.3
2022-12-13T03:53:43.803Z,-8.3
2022-12-13T03:54:45.167Z,-8.3
2022-12-13T03:55:46.896Z,-8.3
2022-12-13T03:56:47.782Z,-8.3
2022-12-13T03:57:48.929Z,-8.3
2022-12-13T03:58:50.147Z,-8.3
2022-12-13T03:59:50.707Z,-8.3
2022-12-13T04:00:51.601Z,-8.3
2022-12-13T04:01:52.534Z,-8.3
2022-12-13T04:02:53.376Z,-8.3
2022-12-13T04:03:55.052Z,-8.3
2022-12-13T04:04:55.980Z,-8.3
2022-12-13T04:06:02.002Z,-8.3
2022-12-13T04:07:02.590Z,-8.3
2022-12-13T04:08:03.843Z,-8.3
2022-12-13T04:09:23.804Z,-8.3
2022-12-13T04:10:25.207Z,-8.3
2022-12-13T04:11:27.913Z,-8.3
2022-12-13T04:12:31.343Z,-8.3
2022-12-13T04:13:32.769Z,-8.3
2022-12-13T04:14:33.657Z,-8.3
2022-12-13T04:15:34.790Z,-8.3
2022-12-13T04:16:35.973Z,-8.3
2022-12-13T04:17:37.219Z,-8.3
2022-12-13T04:18:38.643Z,-8.3
2022-12-13T04:19:40.050Z,-8.3
2022-12-13T04:20:41.267Z,-8.3
2022-12-13T04:21:41.920Z,-8.3
2022-12-13T04:22:42.878Z,-8.3
2022-12-13T04:23:43.785Z,-8.3
2022-12-13T04:24:45.199Z,-8.3
2022-12-13T04:25:46.072Z,-8.3
2022-12-13T04:26:47.218Z,-8.3
2022-12-13T04:27:48.628Z,-8.3
2022-12-13T04:28:54.379Z,-8.3
2022-12-13T04:29:55.719Z,-8.3
2022-12-13T04:30:56.854Z,-8.3
2022-12-13T04:31:58.274Z,-8.3
2022-12-13T04:32:59.409Z,-8.3
2022-12-13T04:34:00.555Z,-8.2
2022-12-13T04:35:01.960Z,-8.2
2022-12-13T04:36:03.098Z,-8.2
2022-12-13T04:37:04.295Z,-8.2
2022-12-13T04:38:05.163Z,-8.2
2022-12-13T04:39:22.452Z,-8.2
2022-12-13T04:40:24.380Z,-8.2
2022-12-13T04:41:25.271Z,-8.2
2022-12-13T04:42:35.676Z,-8.2
2022-12-13T04:43:36.551Z,-8.2
2022-12-13T04:44:40.214Z,-8.2
2022-12-13T04:45:47.004Z,-8.2
2022-12-13T04:46:48.482Z,-8.2
2022-12-13T04:47:49.900Z,-8.2
2022-12-13T04:48:51.039Z,-8.2
2022-12-13T04:49:52.170Z,-8.1
2022-12-13T04:50:53.583Z,-8.2
2022-12-13T04:52:00.483Z,-8.2
2022-12-13T04:53:03.041Z,-8.2
2022-12-13T04:54:12.964Z,-8.2
2022-12-13T04:55:25.628Z,-8.1
2022-12-13T04:56:27.050Z,-8.1
2022-12-13T04:57:28.183Z,-8.1
2022-12-13T04:58:29.598Z,-8.1
2022-12-13T04:59:30.745Z,-8.1
2022-12-13T05:00:31.914Z,-8.1
2022-12-13T05:01:33.366Z,-8.1
2022-12-13T05:02:34.904Z,-8.1
2022-12-13T05:03:36.440Z,-8.1
2022-12-13T05:04:37.290Z,-8.1
2022-12-13T05:05:38.702Z,-8.1
2022-12-13T05:06:40.117Z,-8.1
2022-12-13T05:07:41.985Z,-8.1
2022-12-13T05:08:43.788Z,-8.1
2022-12-13T05:09:44.914Z,-8.1
2022-12-13T05:10:46.082Z,-8.1
2022-12-13T05:11:47.217Z,-8
2022-12-13T05:12:48.634Z,-8.1
2022-12-13T05:13:49.810Z,-8.1
2022-12-13T05:14:51.217Z,-8
2022-12-13T05:15:55.209Z,-8
2022-12-13T05:16:56.544Z,-8
2022-12-13T05:17:57.964Z,-8
2022-12-13T05:19:00.497Z,-8
2022-12-13T05:20:01.636Z,-8
2022-12-13T05:21:03.050Z,-8
2022-12-13T05:22:04.474Z,-8
2022-12-13T05:23:05.623Z,-8
2022-12-13T05:24:07.040Z,-8
2022-12-13T05:25:08.437Z,-8
2022-12-13T05:26:09.573Z,-8
2022-12-13T05:27:24.343Z,-8
2022-12-13T05:28:28.884Z,-8.1
2022-12-13T05:29:29.919Z,-8.1
2022-12-13T05:30:31.302Z,-8.1
2022-12-13T05:31:32.530Z,-8.1
2022-12-13T05:32:33.609Z,-8.1
2022-12-13T05:33:45.400Z,-8.1
2022-12-13T05:34:46.801Z,-8.1
2022-12-13T05:35:47.947Z,-8.1
2022-12-13T05:36:49.072Z,-8.1
2022-12-13T05:37:53.910Z,-8.1
2022-12-13T05:38:56.277Z,-8.1
2022-12-13T05:39:57.436Z,-8.1
2022-12-13T05:40:58.824Z,-8.1
2022-12-13T05:42:01.605Z,-8.1
2022-12-13T05:43:03.987Z,-8.2
2022-12-13T05:44:23.188Z,-8.2
2022-12-13T05:45:24.611Z,-8.2
2022-12-13T05:46:25.786Z,-8.2
2022-12-13T05:47:27.011Z,-8.2
2022-12-13T05:48:28.191Z,-8.2
2022-12-13T05:49:29.337Z,-8.3
2022-12-13T05:50:30.740Z,-8.3
2022-12-13T05:51:31.877Z,-8.3
2022-12-13T05:52:33.012Z,-8.3
2022-12-13T05:53:34.149Z,-8.3
2022-12-13T05:54:35.363Z,-8.4
2022-12-13T05:55:36.508Z,-8.4
2022-12-13T05:56:37.903Z,-8.4
2022-12-13T05:57:39.075Z,-8.5
2022-12-13T05:58:40.532Z,-8.5
2022-12-13T05:59:41.645Z,-8.5
2022-12-13T06:00:42.539Z,-8.5
2022-12-13T06:01:44.248Z,-8.5
2022-12-13T06:02:45.340Z,-8.5
2022-12-13T06:03:46.563Z,-8.6
2022-12-13T06:04:47.827Z,-8.6
2022-12-13T06:05:48.741Z,-8.6
2022-12-13T06:06:50.885Z,-8.6
2022-12-13T06:07:56.705Z,-8.6
2022-12-13T06:08:59.686Z,-8.6
2022-12-13T06:10:09.933Z,-8.6
2022-12-13T06:11:12.462Z,-8.6
2022-12-13T06:12:33.037Z,-8.7
2022-12-13T06:13:33.666Z,-8.7
2022-12-13T06:14:44.921Z,-8.7
2022-12-13T06:15:45.798Z,-8.6
2022-12-13T06:16:47.270Z,-8.7
2022-12-13T06:17:48.768Z,-8.6
2022-12-13T06:18:50.529Z,-8.6
2022-12-13T06:20:24.053Z,-8.6
2022-12-13T06:21:25.764Z,-8.6
2022-12-13T06:22:26.679Z,-8.6
2022-12-13T06:23:28.100Z,-8.6
2022-12-13T06:24:29.245Z,-8.6
2022-12-13T06:25:32.044Z,-8.6
2022-12-13T06:26:33.320Z,-8.6
2022-12-13T06:27:34.468Z,-8.6
2022-12-13T06:28:37.008Z,-8.6
2022-12-13T06:29:37.986Z,-8.6
2022-12-13T06:30:42.640Z,-8.6
2022-12-13T06:31:44.472Z,-8.6
2022-12-13T06:32:45.885Z,-8.6
2022-12-13T06:33:46.782Z,-8.5
2022-12-13T06:34:48.205Z,-8.5
2022-12-13T06:35:49.339Z,-8.5
2022-12-13T06:36:50.194Z,-8.6
2022-12-13T06:37:51.608Z,-8.5
2022-12-13T06:38:52.743Z,-8.5
2022-12-13T06:39:54.171Z,-8.5
2022-12-13T06:40:55.081Z,-8.5
2022-12-13T06:42:01.868Z,-8.5
2022-12-13T06:43:02.747Z,-8.5
2022-12-13T06:44:03.922Z,-8.5
2022-12-13T06:45:05.350Z,-8.5
2022-12-13T06:46:06.543Z,-8.5
2022-12-13T06:47:12.650Z,-8.5
2022-12-13T06:48:33.529Z,-8.5
2022-12-13T06:49:34.955Z,-8.5
2022-12-13T06:50:36.079Z,-8.5
2022-12-13T06:51:37.262Z,-8.5
2022-12-13T06:52:37.883Z,-8.5
2022-12-13T06:53:39.051Z,-8.5
2022-12-13T06:54:40.366Z,-8.5
2022-12-13T06:55:40.929Z,-8.5
2022-12-13T06:56:41.849Z,-8.6
2022-12-13T06:57:43.287Z,-8.6
2022-12-13T06:58:44.677Z,-8.6
2022-12-13T06:59:45.906Z,-8.6
2022-12-13T07:00:48.658Z,-8.6
2022-12-13T07:01:51.139Z,-8.6
2022-12-13T07:02:52.318Z,-8.6
2022-12-13T07:03:54.450Z,-8.6
2022-12-13T07:04:55.724Z,-8.6
2022-12-13T07:05:58.435Z,-8.6
2022-12-13T07:07:01.440Z,-8.6
2022-12-13T07:08:03.414Z,-8.6
2022-12-13T07:09:04.963Z,-8.6
2022-12-13T07:10:06.115Z,-8.6
2022-12-13T07:11:23.851Z,-8.6
2022-12-13T07:12:25.055Z,-8.6
2022-12-13T07:13:26.216Z,-8.6
2022-12-13T07:14:27.371Z,-8.6
2022-12-13T07:15:28.872Z,-8.6
2022-12-13T07:16:30.108Z,-8.6
2022-12-13T07:17:31.784Z,-8.6
2022-12-13T07:18:35.589Z,-8.6
2022-12-13T07:19:36.759Z,-8.6
2022-12-13T07:20:37.860Z,-8.6
2022-12-13T07:21:39.331Z,-8.5
2022-12-13T07:22:46.906Z,-8.5
2022-12-13T07:23:58.938Z,-8.5
2022-12-13T07:24:59.580Z,-8.5
2022-12-13T07:26:00.701Z,-8.4
2022-12-13T07:27:02.115Z,-8.4
2022-12-13T07:28:03.364Z,-8.4
2022-12-13T07:29:04.668Z,-8.4
2022-12-13T07:30:05.794Z,-8.4
2022-12-13T07:31:07.007Z,-8.4
2022-12-13T07:32:08.110Z,-8.4
2022-12-13T07:33:09.002Z,-8.4
2022-12-13T07:34:14.203Z,-8.4
2022-12-13T07:35:16.908Z,-8.4
2022-12-13T07:36:18.065Z,-8.4
2022-12-13T07:37:29.212Z,-8.4
2022-12-13T07:38:31.660Z,-8.4
2022-12-13T07:39:32.798Z,-8.4
2022-12-13T07:40:33.693Z,-8.4
2022-12-13T07:41:35.252Z,-8.4
2022-12-13T07:42:36.669Z,-8.4
2022-12-13T07:43:38.084Z,-8.4
2022-12-13T07:44:39.528Z,-8.4
2022-12-13T07:45:40.933Z,-8.4
2022-12-13T07:46:42.355Z,-8.4
2022-12-13T07:47:43.891Z,-8.4
2022-12-13T07:48:45.675Z,-8.4
2022-12-13T07:49:46.844Z,-8.5
2022-12-13T07:50:54.261Z,-8.5
2022-12-13T07:51:56.138Z,-8.5
2022-12-13T07:52:57.554Z,-8.5
2022-12-13T07:53:58.691Z,-8.5
2022-12-13T07:54:59.588Z,-8.5
2022-12-13T07:56:01.766Z,-8.5
2022-12-13T07:57:04.604Z,-8.5
2022-12-13T07:58:05.971Z,-8.5
2022-12-13T07:59:06.570Z,-8.5
2022-12-13T08:00:07.212Z,-8.5
2022-12-13T08:01:08.330Z,-8.5
2022-12-13T08:02:09.247Z,-8.5
2022-12-13T08:03:14.943Z,-8.5
2022-12-13T08:04:27.814Z,-8.5
2022-12-13T08:05:29.320Z,-8.5
2022-12-13T08:06:40.093Z,-8.4
2022-12-13T08:07:41.236Z,-8.4
2022-12-13T08:08:42.167Z,-8.4
2022-12-13T08:09:45.644Z,-8.4
2022-12-13T08:10:53.953Z,-8.3
2022-12-13T08:12:02.035Z,-8.3
2022-12-13T08:13:02.931Z,-8.2
2022-12-13T08:14:04.348Z,-8.2
2022-12-13T08:15:09.373Z,-8.2
2022-12-13T08:16:26.852Z,-8.1
2022-12-13T08:17:31.159Z,-8.1
2022-12-13T08:18:32.016Z,-8
2022-12-13T08:19:32.915Z,-8
2022-12-13T08:20:34.253Z,-7.9
2022-12-13T08:23:24.046Z,-7.8
2022-12-13T08:24:24.908Z,-7.8
2022-12-13T08:25:26.063Z,-7.7
2022-12-13T08:26:26.962Z,-7.7
2022-12-13T08:27:27.823Z,-7.6
2022-12-13T08:28:28.705Z,-7.6
2022-12-13T08:29:32.951Z,-7.6
2022-12-13T08:30:36.974Z,-7.5
2022-12-13T08:31:38.200Z,-7.5
2022-12-13T08:32:39.256Z,-7.4
2022-12-13T08:33:40.151Z,-7.4
2022-12-13T08:34:41.592Z,-7.3
2022-12-13T08:35:42.453Z,-7.3
2022-12-13T08:36:43.596Z,-7.3
2022-12-13T08:37:44.761Z,-7.2
2022-12-13T08:38:46.182Z,-7.2
2022-12-13T08:39:47.594Z,-7.2
2022-12-13T08:40:48.489Z,-7.1
2022-12-13T08:41:52.751Z,-7.1
2022-12-13T08:42:54.151Z,-7
2022-12-13T08:43:55.566Z,-7
2022-12-13T08:44:56.744Z,-7
2022-12-13T08:46:01.339Z,-6.9
2022-12-13T08:47:03.085Z,-6.9
2022-12-13T08:48:04.178Z,-6.8
2022-12-13T08:49:05.409Z,-6.8
2022-12-13T08:50:07.002Z,-6.7
2022-12-13T08:51:08.187Z,-6.7
2022-12-13T08:52:09.342Z,-6.6
2022-12-13T08:53:10.231Z,-6.6
2022-12-13T08:54:41.971Z,-6.5
2022-12-13T08:55:43.109Z,-6.5
2022-12-13T08:56:44.259Z,-6.5
2022-12-13T08:57:45.143Z,-6.4
2022-12-13T08:58:46.276Z,-6.4
2022-12-13T08:59:47.206Z,-6.3
2022-12-13T09:00:48.354Z,-6.3
2022-12-13T09:01:49.308Z,-6.2
2022-12-13T09:03:05.490Z,-6.2
2022-12-13T09:04:11.662Z,-6.1
2022-12-13T09:05:12.843Z,-6.1
2022-12-13T09:06:34.064Z,-6
2022-12-13T09:07:35.193Z,-6
2022-12-13T09:08:36.362Z,-6
2022-12-13T09:09:37.966Z,-5.9
2022-12-13T09:10:39.147Z,-5.9
2022-12-13T09:11:40.329Z,-5.8
2022-12-13T09:12:41.830Z,-5.8
2022-12-13T09:13:43.598Z,-5.7
2022-12-13T09:14:46.139Z,-5.7
2022-12-13T09:15:47.544Z,-5.6
2022-12-13T09:16:50.694Z,-5.6
2022-12-13T09:17:53.392Z,-5.5
2022-12-13T09:18:55.953Z,-5.5
2022-12-13T09:19:57.862Z,-5.4
2022-12-13T09:21:10.629Z,-5.4
2022-12-13T09:22:14.583Z,-5.3
2022-12-13T09:23:35.546Z,-5.3
2022-12-13T09:24:49.943Z,-5.2
2022-12-13T09:25:51.551Z,-5.2
2022-12-13T09:26:57.128Z,-5.2
2022-12-13T09:27:58.275Z,-5.1
2022-12-13T09:28:59.455Z,-5.1
2022-12-13T09:30:12.538Z,-5
2022-12-13T09:31:14.159Z,-5
2022-12-13T09:32:15.921Z,-5
2022-12-13T09:33:18.070Z,-4.9
2022-12-13T09:34:41.034Z,-4.9
2022-12-13T09:35:46.383Z,-4.9
2022-12-13T09:36:47.492Z,-4.8
2022-12-13T09:37:48.931Z,-4.8
2022-12-13T09:38:50.324Z,-4.8
2022-12-13T09:39:54.896Z,-4.7
2022-12-13T09:40:58.230Z,-4.7
2022-12-13T09:42:01.694Z,-4.6
2022-12-13T09:43:12.052Z,-4.6
2022-12-13T09:44:42.648Z,-4.6
2022-12-13T09:46:04.125Z,-4.5
2022-12-13T09:47:24.602Z,-4.5
2022-12-13T09:48:26.759Z,-4.4
2022-12-13T09:49:35.654Z,-4.4
2022-12-13T09:50:39.821Z,-4.3
2022-12-13T09:52:33.373Z,-4.3
2022-12-13T09:53:35.218Z,-4.2
2022-12-13T09:54:44.784Z,-4.2
2022-12-13T09:55:50.323Z,-4.2
2022-12-13T09:56:51.504Z,-4.1
2022-12-13T09:57:52.872Z,-4.1
2022-12-13T09:58:54.031Z,-4.1
2022-12-13T09:59:59.965Z,-4.1
2022-12-13T10:01:03.354Z,-4
2022-12-13T10:02:04.705Z,-4
2022-12-13T10:03:05.907Z,-4
2022-12-13T10:04:06.815Z,-3.9
2022-12-13T10:05:07.695Z,-3.9
2022-12-13T10:06:39.911Z,-3.9
2022-12-13T10:07:41.346Z,-3.9
2022-12-13T10:08:42.740Z,-3.8
2022-12-13T10:09:43.886Z,-3.8
2022-12-13T10:10:45.048Z,-3.8
2022-12-13T10:11:50.330Z,-3.7
2022-12-13T10:12:52.147Z,-3.7
2022-12-13T10:13:53.568Z,-3.7
2022-12-13T10:14:54.753Z,-3.6
2022-12-13T10:15:56.158Z,-3.6
2022-12-13T10:16:57.764Z,-3.6
2022-12-13T10:17:59.351Z,-3.5
2022-12-13T10:19:00.487Z,-3.5
2022-12-13T10:20:01.628Z,-3.5
2022-12-13T10:21:02.762Z,-3.4
2022-12-13T10:22:03.897Z,-3.4
2022-12-13T10:25:27.983Z,-3.3
2022-12-13T10:26:29.445Z,-3.2
2022-12-13T10:27:30.737Z,-3.2
2022-12-13T10:28:31.634Z,-3.2
2022-12-13T10:29:32.493Z,-3.1
2022-12-13T10:30:33.640Z,-3.1
2022-12-13T10:31:34.815Z,-3.1
2022-12-13T10:32:37.298Z,-3
2022-12-13T10:33:38.818Z,-3
2022-12-13T10:34:40.237Z,-3
2022-12-13T10:35:41.151Z,-3
2022-12-13T10:36:42.543Z,-2.9
2022-12-13T10:37:43.430Z,-2.9
2022-12-13T10:38:44.957Z,-2.9
2022-12-13T10:39:46.101Z,-2.8
2022-12-13T10:40:47.526Z,-2.8
2022-12-13T10:41:48.651Z,-2.8
2022-12-13T10:42:49.788Z,-2.7
2022-12-13T10:43:51.199Z,-2.7
2022-12-13T10:44:52.616Z,-2.6
2022-12-13T10:45:53.506Z,-2.6
2022-12-13T10:46:54.979Z,-2.6
2022-12-13T10:48:00.790Z,-2.5
2022-12-13T10:49:05.572Z,-2.5
2022-12-13T10:50:06.702Z,-2.5
2022-12-13T10:51:07.989Z,-2.4
2022-12-13T10:52:09.315Z,-2.4
2022-12-13T10:53:10.177Z,-2.4
2022-12-13T10:54:11.617Z,-2.4
2022-12-13T10:55:22.891Z,-2.3
2022-12-13T10:56:25.175Z,-2.3
2022-12-13T10:57:26.287Z,-2.3
2022-12-13T10:58:27.422Z,-2.3
2022-12-13T10:59:28.839Z,-2.2
2022-12-13T11:00:30.027Z,-2.2
2022-12-13T11:01:30.736Z,-2.2
2022-12-13T11:02:32.149Z,-2.1
2022-12-13T11:03:33.359Z,-2.1
2022-12-13T11:04:34.762Z,-2.1
2022-12-13T11:05:36.334Z,-2.1
2022-12-13T11:06:37.244Z,-2
2022-12-13T11:07:44.806Z,-2
2022-12-13T11:08:45.974Z,-2
2022-12-13T11:09:52.411Z,-1.9
2022-12-13T11:10:54.273Z,-1.9
2022-12-13T11:11:58.078Z,-1.9
2022-12-13T11:12:59.854Z,-1.9
2022-12-13T11:14:01.272Z,-1.8
2022-12-13T11:15:02.447Z,-1.8
2022-12-13T11:16:03.622Z,-1.5
2022-12-13T11:17:04.799Z,-1
2022-12-13T11:18:06.193Z,-0.5
2022-12-13T11:19:07.677Z,-0.2
2022-12-13T11:20:09.040Z,0.1
2022-12-13T11:21:09.898Z,0.4
2022-12-13T11:22:11.055Z,0.8
2022-12-13T11:23:12.202Z,1
2022-12-13T11:24:13.615Z,1.2
2022-12-13T11:25:23.699Z,1.2
2022-12-13T11:26:24.908Z,0.9
2022-12-13T11:27:26.068Z,0.7
2022-12-13T11:28:27.853Z,0.6
2022-12-13T11:29:39.575Z,0.4
2022-12-13T11:30:43.628Z,0.3
2022-12-13T11:31:44.845Z,0.2
2022-12-13T11:32:46.283Z,0.1
2022-12-13T11:33:48.868Z,0
2022-12-13T11:34:50.610Z,-0.1
2022-12-13T11:35:51.750Z,-0.1
2022-12-13T11:36:52.892Z,-0.2
2022-12-13T11:37:54.343Z,-0.2
2022-12-13T11:38:57.894Z,-0.3
2022-12-13T11:40:01.306Z,-0.3
2022-12-13T11:41:03.382Z,-0.4
2022-12-13T11:42:04.838Z,-0.4
2022-12-13T11:43:06.002Z,-0.4
2022-12-13T11:44:07.113Z,-0.5
2022-12-13T11:45:08.289Z,-0.5
2022-12-13T11:46:09.507Z,-0.5
2022-12-13T11:47:10.788Z,-0.5
2022-12-13T11:48:12.345Z,-0.5
2022-12-13T11:49:13.710Z,-0.6
2022-12-13T11:50:19.059Z,-0.6
2022-12-13T11:51:35.003Z,-0.6
2022-12-13T11:52:36.178Z,-0.6
2022-12-13T11:53:37.671Z,-0.6
2022-12-13T11:54:38.761Z,-0.6
2022-12-13T11:55:39.896Z,-0.6
2022-12-13T11:56:41.335Z,-0.6
2022-12-13T11:57:42.492Z,-0.6
2022-12-13T12:00:33.496Z,-0.6
2022-12-13T12:01:38.108Z,-0.6
2022-12-13T12:02:39.718Z,-0.5
2022-12-13T12:03:40.773Z,-0.5
2022-12-13T12:04:41.781Z,-0.5
2022-12-13T12:05:42.671Z,-0.5
2022-12-13T12:06:43.808Z,-0.5
2022-12-13T12:08:05.611Z,-0.5
2022-12-13T12:09:43.541Z,-0.4
2022-12-13T12:10:49.599Z,-0.4
2022-12-13T12:11:51.341Z,-0.4
2022-12-13T12:12:52.171Z,-0.4
2022-12-13T12:13:53.028Z,-0.4
2022-12-13T12:14:53.951Z,-0.4
2022-12-13T12:15:55.421Z,-0.3
2022-12-13T12:16:56.616Z,-0.3
2022-12-13T12:17:57.523Z,-0.3
2022-12-13T12:19:01.203Z,-0.3
2022-12-13T12:20:02.966Z,-0.3
2022-12-13T12:21:04.305Z,-0.3
2022-12-13T12:22:13.513Z,-0.3
2022-12-13T12:23:16.615Z,-0.3
2022-12-13T12:24:17.744Z,-0.2
2022-12-13T12:25:18.371Z,-0.2
2022-12-13T12:26:19.506Z,-0.2
2022-12-13T12:27:22.127Z,-0.2
2022-12-13T12:28:24.319Z,-0.2
2022-12-13T12:29:30.821Z,-0.2
2022-12-13T12:30:31.702Z,-0.2
2022-12-13T12:31:33.120Z,-0.2
2022-12-13T12:32:34.157Z,-0.2
2022-12-13T12:33:35.573Z,-0.2
2022-12-13T12:34:36.990Z,-0.2
2022-12-13T12:35:43.344Z,-0.2
2022-12-13T12:36:47.357Z,-0.1
2022-12-13T12:37:48.492Z,-0.1
2022-12-13T12:38:51.950Z,-0.1
2022-12-13T12:39:52.798Z,-0.1
2022-12-13T12:41:15.450Z,0
2022-12-13T12:42:18.360Z,0
2022-12-13T12:43:19.402Z,0.1
2022-12-13T12:44:20.232Z,0.1
2022-12-13T12:45:47.761Z,0.1
2022-12-13T12:47:01.780Z,0.1
2022-12-13T12:49:09.310Z,0.2
2022-12-13T12:50:12.196Z,0.2
2022-12-13T12:51:13.098Z,0.3
2022-12-13T12:52:13.944Z,0.3
2022-12-13T12:53:15.077Z,0.3
2022-12-13T12:54:15.715Z,0.3
2022-12-13T12:55:16.852Z,0.4
2022-12-13T12:56:17.809Z,0.4
2022-12-13T12:57:18.659Z,0.4
2022-12-13T12:58:19.555Z,0.4
2022-12-13T12:59:21.023Z,0.4
2022-12-13T13:00:22.390Z,0.4
2022-12-13T13:01:23.305Z,0.4
2022-12-13T13:02:24.776Z,0.4
2022-12-13T13:03:26.008Z,0.4
2022-12-13T13:04:26.966Z,0.4
2022-12-13T13:05:28.380Z,0.4
2022-12-13T13:06:29.807Z,0.4
2022-12-13T13:07:30.935Z,0.5
2022-12-13T13:08:41.342Z,0.5
2022-12-13T13:09:42.647Z,0.5
2022-12-13T13:10:49.970Z,0.5
2022-12-13T13:11:51.487Z,0.5
2022-12-13T13:13:11.287Z,0.5
2022-12-13T13:14:18.298Z,0.6
2022-12-13T13:15:20.827Z,0.6
2022-12-13T13:16:25.045Z,0.6
2022-12-13T13:17:26.098Z,0.6
2022-12-13T13:18:27.777Z,0.6
2022-12-13T13:19:29.750Z,0.6
2022-12-13T13:20:30.905Z,0.6
2022-12-13T13:21:32.179Z,0.7
2022-12-13T13:22:32.800Z,0.7
2022-12-13T13:23:40.507Z,0.7
2022-12-13T13:24:42.090Z,0.7
2022-12-13T13:26:00.634Z,0.7
2022-12-13T13:27:36.417Z,0.7
2022-12-13T13:28:37.599Z,0.7
2022-12-13T13:29:38.751Z,0.7
2022-12-13T13:30:45.238Z,0.7
2022-12-13T13:31:46.285Z,0.7
2022-12-13T13:32:46.901Z,0.7
2022-12-13T13:33:48.066Z,0.7
2022-12-13T13:34:49.453Z,0.7
2022-12-13T13:35:50.628Z,0.7
2022-12-13T13:36:51.520Z,0.8
2022-12-13T13:37:52.896Z,0.8
2022-12-13T13:38:54.043Z,0.8
2022-12-13T13:39:55.164Z,0.8
2022-12-13T13:40:56.203Z,0.8
2022-12-13T13:41:57.617Z,0.7
2022-12-13T13:42:58.789Z,0.7
2022-12-13T13:44:01.915Z,0.7
2022-12-13T13:45:03.045Z,0.7
2022-12-13T13:46:04.044Z,0.7
2022-12-13T13:47:05.222Z,0.7
2022-12-13T13:48:14.362Z,0.7
2022-12-13T13:49:16.066Z,0.7
2022-12-13T13:50:17.481Z,0.7
2022-12-13T13:51:18.330Z,0.7
2022-12-13T13:52:26.848Z,0.7
2022-12-13T13:53:28.555Z,0.6
2022-12-13T13:54:29.526Z,0.6
2022-12-13T13:55:30.937Z,0.6
2022-12-13T13:56:31.820Z,0.6
2022-12-13T13:58:07.485Z,0.6
2022-12-13T13:59:11.873Z,0.6
2022-12-13T14:00:13.303Z,0.6
2022-12-13T14:01:14.663Z,0.5
2022-12-13T14:02:16.194Z,0.5
2022-12-13T14:03:29.053Z,0.5
2022-12-13T14:04:37.969Z,0.5
2022-12-13T14:05:39.107Z,0.5
2022-12-13T14:06:39.976Z,0.5
2022-12-13T14:07:40.590Z,0.5
2022-12-13T14:08:41.442Z,0.5
2022-12-13T14:09:42.304Z,0.5
2022-12-13T14:10:43.171Z,0.5
2022-12-13T14:11:44.059Z,0.5